Time;durP1;ratioP1;P1;durP2;ratioP2;P2;SDS_P1;SDS_P2;PMS_P1;PMS_P2;Temp;Humidity;BMP_temperature;BMP_pressure;BME280_temperature;BME280_humidity;BME280_pressure;Samples;Min_cycle;Max_cycle;Signal;HPM_P1;HPM_P2
2022/02/26 00:01:29;;;;;;;27.05;12.58;;;;;;;3.86;72.35;100600.08;1786299;78;21026;-61
2022/02/26 00:03:57;;;;;;;27.35;12.30;;;;;;;3.94;72.11;100606.13;1784697;79;21486;-61
2022/02/26 00:06:26;;;;;;;30.75;12.68;;;;;;;3.95;71.90;100614.11;1804531;78;21106;-61
2022/02/26 00:08:55;;;;;;;26.82;12.20;;;;;;;3.97;71.75;100612.61;1796562;79;21050;-61
2022/02/26 00:11:23;;;;;;;26.52;12.13;;;;;;;4.00;71.57;100617.23;1784973;78;22015;-62
2022/02/26 00:13:53;;;;;;;28.38;13.75;;;;;;;4.04;71.49;100615.07;1802897;78;21107;-62
2022/02/26 00:16:21;;;;;;;27.13;12.90;;;;;;;4.07;71.38;100621.55;1791451;78;21141;-61
2022/02/26 00:18:49;;;;;;;24.95;11.30;;;;;;;4.09;71.36;100619.55;1776011;79;21056;-61
2022/02/26 00:21:18;;;;;;;24.65;12.13;;;;;;;4.12;71.40;100625.52;1787590;80;21009;-61
2022/02/26 00:23:47;;;;;;;22.37;11.93;;;;;;;4.14;71.50;100627.57;1777538;79;21495;-61
2022/02/26 00:26:19;;;;;;;26.10;12.33;;;;;;;4.14;71.59;100623.50;1792365;78;21076;-61
2022/02/26 00:28:46;;;;;;;26.80;12.07;;;;;;;4.17;71.69;100635.05;1791079;79;21086;-61
2022/02/26 00:31:16;;;;;;;21.73;11.55;;;;;;;4.20;71.70;100634.25;1783783;78;21082;-60
2022/02/26 00:33:45;;;;;;;27.27;12.88;;;;;;;4.22;71.68;100633.59;1781029;79;21077;-61
2022/02/26 00:36:14;;;;;;;23.02;11.10;;;;;;;4.24;71.67;100637.52;1792742;78;21487;-61
2022/02/26 00:38:45;;;;;;;21.73;9.73;;;;;;;4.25;71.71;100639.22;1783506;78;21087;-61
2022/02/26 00:41:13;;;;;;;19.48;9.33;;;;;;;4.26;71.78;100639.07;1784456;78;21544;-61
2022/02/26 00:43:42;;;;;;;18.25;8.93;;;;;;;4.28;71.79;100639.77;1784294;78;21014;-61
2022/02/26 00:46:13;;;;;;;17.25;8.38;;;;;;;4.30;71.76;100643.69;1800702;78;21075;-62
2022/02/26 00:51:30;;;;;;;17.23;7.83;;;;;;;4.33;71.53;100656.95;1787608;78;21090;-61
2022/02/26 00:53:59;;;;;;;15.20;7.20;;;;;;;4.33;71.49;100652.88;1796940;78;21198;-61
2022/02/26 00:56:27;;;;;;;14.40;6.85;;;;;;;4.33;71.43;100655.59;1772960;79;21040;-61
2022/02/26 00:58:56;;;;;;;12.93;6.20;;;;;;;4.33;71.36;100663.73;1785390;79;21098;-62
2022/02/26 01:01:25;;;;;;;13.08;6.50;;;;;;;4.30;71.24;100656.75;1778721;79;21054;-61
2022/02/26 01:03:54;;;;;;;12.25;6.62;;;;;;;4.30;71.25;100658.61;1778132;79;21043;-62
2022/02/26 01:06:22;;;;;;;13.50;6.30;;;;;;;4.31;71.25;100663.88;1764868;80;22247;-62
2022/02/26 01:08:51;;;;;;;12.15;5.78;;;;;;;4.31;71.25;100661.17;1799988;79;21105;-61
2022/02/26 01:11:20;;;;;;;11.12;5.87;;;;;;;4.31;71.20;100664.38;1808402;79;21058;-62
2022/02/26 01:13:48;;;;;;;10.60;5.42;;;;;;;4.30;71.14;100669.45;1784000;78;21051;-62
2022/02/26 01:16:17;;;;;;;10.93;5.28;;;;;;;4.29;71.11;100678.59;1776496;79;21010;-61
2022/02/26 01:18:46;;;;;;;9.98;5.08;;;;;;;4.27;71.10;100676.54;1775785;79;21083;-62
2022/02/26 01:21:15;;;;;;;10.05;5.15;;;;;;;4.26;71.14;100674.83;1751187;80;21502;-62
2022/02/26 01:23:44;;;;;;;10.70;4.87;;;;;;;4.27;71.12;100676.04;1774282;79;21090;-62
2022/02/26 01:26:16;;;;;;;9.70;4.65;;;;;;;4.27;71.06;100679.25;1784890;79;21028;-61
2022/02/26 01:28:45;;;;;;;9.15;4.62;;;;;;;4.26;70.97;100680.25;1776771;79;21023;-61
2022/02/26 01:31:13;;;;;;;8.53;4.53;;;;;;;4.23;70.94;100680.05;1751401;80;21039;-62
2022/02/26 01:33:43;;;;;;;7.60;3.55;;;;;;;4.21;70.89;100686.63;1776024;79;21441;-62
2022/02/26 01:36:11;;;;;;;7.42;3.83;;;;;;;4.18;70.96;100691.00;1781372;79;21088;-62
2022/02/26 01:38:40;;;;;;;8.68;3.62;;;;;;;4.17;70.98;100694.21;1784173;79;21573;-61
2022/02/26 01:41:09;;;;;;;7.65;3.75;;;;;;;4.15;70.90;100692.16;1777951;79;21058;-61
2022/02/26 01:43:38;;;;;;;5.50;3.00;;;;;;;4.12;70.94;100689.23;1777381;79;21103;-61
2022/02/26 01:46:07;;;;;;;7.03;3.20;;;;;;;4.11;70.96;100690.74;1776918;79;21005;-61
2022/02/26 01:48:36;;;;;;;5.67;3.05;;;;;;;4.08;70.98;100700.53;1782112;79;21073;-61
2022/02/26 01:51:07;;;;;;;4.78;3.12;;;;;;;4.07;71.00;100704.25;1751612;80;21024;-62
2022/02/26 01:53:37;;;;;;;6.17;3.10;;;;;;;4.04;70.98;100699.97;1784172;78;21054;-63
2022/02/26 01:56:08;;;;;;;4.75;2.70;;;;;;;4.02;70.97;100706.05;1778630;79;21063;-61
2022/02/26 01:58:37;;;;;;;6.42;2.70;;;;;;;4.03;70.99;100699.62;1783202;78;21030;-62
2022/02/26 02:01:11;;;;;;;7.60;3.05;;;;;;;4.05;71.00;100708.96;1790334;78;21090;-61
2022/02/26 02:03:41;;;;;;;4.22;2.65;;;;;;;4.04;70.99;100707.25;1783975;78;21062;-61
2022/02/26 02:06:12;;;;;;;4.15;2.45;;;;;;;4.02;70.90;100714.18;1799104;78;21139;-61
2022/02/26 02:08:43;;;;;;;6.42;2.67;;;;;;;3.99;70.93;100715.83;1796214;78;21479;-61
2022/02/26 02:11:12;;;;;;;4.78;2.58;;;;;;;3.96;70.95;100713.42;1791613;78;21193;-63
2022/02/26 02:13:40;;;;;;;5.20;2.67;;;;;;;3.98;71.00;100719.55;1803879;79;21058;-61
2022/02/26 02:16:09;;;;;;;4.37;2.30;;;;;;;3.98;70.94;100724.11;1783744;78;21058;-62
2022/02/26 02:18:42;;;;;;;4.15;2.33;;;;;;;3.96;70.96;100722.05;1791889;78;20984;-61
2022/02/26 02:21:10;;;;;;;3.95;2.50;;;;;;;3.94;71.08;100730.33;1798511;79;21066;-62
2022/02/26 02:23:41;;;;;;;4.42;2.72;;;;;;;3.92;71.15;100730.98;1793901;78;21114;-62
2022/02/26 02:26:09;;;;;;;4.60;2.50;;;;;;;3.92;71.19;100735.55;1788804;78;21640;-61
2022/02/26 02:28:41;;;;;;;5.03;2.62;;;;;;;3.89;71.22;100734.45;1803122;79;21038;-62
2022/02/26 02:31:10;;;;;;;4.55;2.65;;;;;;;3.87;71.33;100736.45;1779568;79;21064;-61
2022/02/26 02:33:41;;;;;;;5.25;2.77;;;;;;;3.86;71.33;100734.24;1787120;78;21446;-61
2022/02/26 02:36:09;;;;;;;4.10;2.52;;;;;;;3.86;71.37;100741.02;1781041;79;21578;-61
2022/02/26 02:38:38;;;;;;;4.28;2.62;;;;;;;3.87;71.41;100737.81;1789844;78;21058;-61
2022/02/26 02:41:07;;;;;;;5.10;2.52;;;;;;;3.87;71.44;100738.66;1784433;78;21062;-61
2022/02/26 02:43:36;;;;;;;3.62;2.40;;;;;;;3.88;71.46;100742.23;1798144;78;21038;-62
2022/02/26 02:46:04;;;;;;;4.42;2.62;;;;;;;3.87;71.47;100741.38;1775070;79;21149;-62
2022/02/26 02:48:33;;;;;;;4.20;2.67;;;;;;;3.85;71.41;100744.73;1779947;79;21172;-62
2022/02/26 02:51:01;;;;;;;5.17;2.60;;;;;;;3.82;71.46;100745.02;1772908;79;21599;-62
2022/02/26 02:53:31;;;;;;;4.00;2.52;;;;;;;3.84;71.49;100744.38;1752748;80;21031;-63
2022/02/26 02:55:59;;;;;;;4.70;2.52;;;;;;;3.84;71.50;100753.86;1778744;79;21080;-61
2022/02/26 02:58:29;;;;;;;4.92;2.40;;;;;;;3.83;71.50;100756.22;1777384;79;21150;-61
2022/02/26 03:00:58;;;;;;;4.62;2.60;;;;;;;3.79;71.55;100764.28;1782494;79;21080;-62
2022/02/26 03:03:27;;;;;;;6.05;2.83;;;;;;;3.76;71.63;100769.99;1801159;79;21097;-61
2022/02/26 03:05:56;;;;;;;5.33;2.87;;;;;;;3.73;71.77;100768.93;1791671;78;21106;-61
2022/02/26 03:08:26;;;;;;;3.98;2.37;;;;;;;3.71;71.90;100761.44;1803708;78;21109;-62
2022/02/26 03:10:56;;;;;;;6.03;2.80;;;;;;;3.70;72.03;100779.56;1779569;79;21008;-61
2022/02/26 03:13:26;;;;;;;6.85;3.02;;;;;;;3.69;72.12;100777.84;1782211;79;21040;-61
2022/02/26 03:15:56;;;;;;;4.50;2.70;;;;;;;3.68;72.26;100775.28;1793604;78;21031;-62
2022/02/26 03:18:26;;;;;;;5.08;3.00;;;;;;;3.67;72.45;100783.05;1792042;78;21484;-61
2022/02/26 03:20:55;;;;;;;5.72;3.20;;;;;;;3.65;72.59;100783.70;1791100;78;20980;-62
2022/02/26 03:23:26;;;;;;;7.25;3.25;;;;;;;3.62;72.71;100780.78;1808942;79;21047;-62
2022/02/26 03:25:55;;;;;;;5.17;3.50;;;;;;;3.60;72.82;100788.20;1801297;78;21027;-62
2022/02/26 03:28:23;;;;;;;4.83;3.00;;;;;;;3.60;72.93;100789.55;1790273;78;21552;-62
2022/02/26 03:30:52;;;;;;;7.08;3.27;;;;;;;3.59;73.06;100798.67;1799061;79;21054;-61
2022/02/26 03:33:21;;;;;;;5.58;3.58;;;;;;;3.54;73.28;100801.46;1785403;78;21078;-61
2022/02/26 03:35:50;;;;;;;7.97;3.80;;;;;;;3.51;73.53;100801.25;1801113;78;21049;-61
2022/02/26 03:38:19;;;;;;;8.28;3.65;;;;;;;3.46;73.71;100800.31;1782907;78;21082;-62
2022/02/26 03:40:48;;;;;;;6.62;3.15;;;;;;;3.43;73.87;100806.02;1783271;78;21081;-62
2022/02/26 03:43:17;;;;;;;5.87;3.37;;;;;;;3.39;74.03;100808.66;1772126;79;21067;-62
2022/02/26 03:45:45;;;;;;;6.60;3.33;;;;;;;3.38;74.21;100809.66;1782238;80;21119;-61
2022/02/26 03:48:15;;;;;;;5.95;3.40;;;;;;;3.37;74.31;100813.36;1802972;78;21011;-62
2022/02/26 03:50:44;;;;;;;6.42;3.65;;;;;;;3.37;74.48;100816.56;1796184;78;21025;-61
2022/02/26 03:53:12;;;;;;;5.67;3.50;;;;;;;3.34;74.56;100815.00;1796683;79;21464;-61
2022/02/26 03:55:41;;;;;;;6.85;3.85;;;;;;;3.32;74.80;100815.63;1791697;78;21058;-61
2022/02/26 03:58:10;;;;;;;8.05;3.70;;;;;;;3.27;74.98;100823.33;1793680;79;21424;-62
2022/02/26 04:00:39;;;;;;;7.53;3.55;;;;;;;3.22;75.13;100827.42;1791795;78;21739;-60
2022/02/26 04:03:09;;;;;;;7.53;4.00;;;;;;;3.22;75.26;100840.46;1727202;82;21030;-61
2022/02/26 04:05:38;;;;;;;7.00;3.83;;;;;;;3.22;75.36;100839.11;1723772;82;21474;-61
2022/02/26 04:08:07;;;;;;;6.87;4.00;;;;;;;3.23;75.48;100846.23;1730759;82;21501;-61
2022/02/26 04:10:35;;;;;;;5.97;3.55;;;;;;;3.22;75.57;100849.94;1724697;82;21090;-61
2022/02/26 04:13:04;;;;;;;9.05;4.10;;;;;;;3.18;75.69;100853.92;1733097;82;21038;-62
2022/02/26 04:15:33;;;;;;;8.03;4.17;;;;;;;3.14;75.83;100861.95;1728387;82;21077;-62
2022/02/26 04:18:01;;;;;;;7.72;3.92;;;;;;;3.13;75.95;100861.11;1715747;82;21499;-62
2022/02/26 04:20:31;;;;;;;8.18;4.12;;;;;;;3.12;76.06;100868.86;1684320;82;21171;-63
2022/02/26 04:22:59;;;;;;;7.12;3.72;;;;;;;3.11;76.16;100869.00;1779003;79;21124;-62
2022/02/26 04:25:28;;;;;;;8.95;4.80;;;;;;;3.12;76.20;100873.42;1794131;79;21046;-62
2022/02/26 04:27:57;;;;;;;6.87;4.33;;;;;;;3.12;76.21;100880.19;1794680;78;21073;-61
2022/02/26 04:30:26;;;;;;;7.12;4.17;;;;;;;3.10;76.25;100886.24;1803284;78;21078;-62
2022/02/26 04:32:55;;;;;;;8.88;4.53;;;;;;;3.08;76.29;100889.59;1790793;78;20995;-62
2022/02/26 04:35:23;;;;;;;7.72;4.12;;;;;;;3.07;76.38;100898.20;1796377;78;21224;-62
2022/02/26 04:37:53;;;;;;;8.28;4.00;;;;;;;3.06;76.39;100907.32;1782931;78;21589;-62
2022/02/26 04:40:21;;;;;;;7.67;4.08;;;;;;;3.03;76.42;100906.73;1784876;78;21548;-63
2022/02/26 04:42:51;;;;;;;8.63;4.10;;;;;;;3.01;76.61;100918.20;1782455;78;21082;-61
2022/02/26 04:45:19;;;;;;;7.55;4.05;;;;;;;3.01;76.69;100921.77;1806423;79;21043;-61
2022/02/26 04:47:48;;;;;;;7.40;4.12;;;;;;;3.00;76.78;100927.31;1796018;79;21546;-63
2022/02/26 04:50:17;;;;;;;7.97;4.17;;;;;;;3.00;76.89;100935.43;1800037;78;21022;-62
2022/02/26 04:52:45;;;;;;;9.85;4.37;;;;;;;2.98;76.96;100938.77;1784065;78;21073;-62
2022/02/26 04:55:14;;;;;;;8.40;4.30;;;;;;;2.98;77.00;100935.57;1784157;78;21074;-63
2022/02/26 04:57:44;;;;;;;10.10;4.92;;;;;;;2.98;77.01;100946.89;1803769;78;21138;-61
2022/02/26 05:00:14;;;;;;;9.25;4.17;;;;;;;2.97;77.07;100954.66;1797288;79;21562;-63
2022/02/26 05:02:43;;;;;;;8.20;4.60;;;;;;;2.95;77.15;100957.99;1802627;78;21057;-61
2022/02/26 05:05:11;;;;;;;12.37;4.40;;;;;;;2.93;77.27;100965.39;1799498;78;21165;-62
2022/02/26 05:07:41;;;;;;;7.78;4.10;;;;;;;2.91;77.38;100965.52;1788001;78;21476;-61
2022/02/26 05:10:09;;;;;;;7.83;4.53;;;;;;;2.90;77.44;100966.52;1791212;78;21118;-63
2022/02/26 05:12:42;;;;;;;9.13;4.60;;;;;;;2.91;77.55;100978.20;1788360;78;21098;-61
2022/02/26 05:15:12;;;;;;;7.92;4.62;;;;;;;2.91;77.57;100984.97;1784404;78;21081;-61
2022/02/26 05:17:42;;;;;;;6.92;4.55;;;;;;;2.88;77.62;100980.67;1789953;78;21666;-62
2022/02/26 05:20:11;;;;;;;8.95;5.08;;;;;;;2.87;77.69;100983.02;1777637;79;21062;-62
2022/02/26 05:22:40;;;;;;;8.53;4.72;;;;;;;2.86;77.77;100986.72;1774486;79;21127;-61
2022/02/26 05:25:10;;;;;;;12.18;5.12;;;;;;;2.83;77.88;100987.84;1778007;79;21534;-61
2022/02/26 05:27:45;;;;;;;10.80;5.08;;;;;;;2.82;77.95;100987.48;1776140;79;21086;-63
2022/02/26 05:30:13;;;;;;;11.60;5.15;;;;;;;2.82;78.02;100988.84;1778659;79;21544;-62
2022/02/26 05:32:41;;;;;;;9.88;5.20;;;;;;;2.81;78.05;100996.59;1774405;79;21085;-62
2022/02/26 05:35:10;;;;;;;12.23;5.17;;;;;;;2.77;78.22;100997.85;1786765;80;21036;-61
2022/02/26 05:37:38;;;;;;;9.23;5.30;;;;;;;2.76;78.30;100996.13;1787294;78;21062;-62
2022/02/26 05:40:08;;;;;;;8.98;4.65;;;;;;;2.78;78.34;101002.77;1783389;78;21482;-62
2022/02/26 05:42:36;;;;;;;9.60;5.33;;;;;;;2.77;78.41;101003.27;1784587;78;21050;-63
2022/02/26 05:45:07;;;;;;;10.32;5.10;;;;;;;2.78;78.38;101005.47;1792224;78;21058;-64
2022/02/26 05:47:36;;;;;;;10.32;5.50;;;;;;;2.79;78.38;100999.06;1782293;79;21421;-62
2022/02/26 05:50:07;;;;;;;16.20;5.50;;;;;;;2.79;78.36;101009.40;1770813;79;21104;-61
2022/02/26 05:52:36;;;;;;;12.45;5.70;;;;;;;2.79;78.37;101008.55;1787836;79;21032;-62
2022/02/26 05:55:05;;;;;;;10.38;5.37;;;;;;;2.80;78.42;101023.30;1785256;78;21113;-60
2022/02/26 05:57:34;;;;;;;10.78;5.45;;;;;;;2.82;78.48;101024.02;1783795;78;21482;-61
2022/02/26 06:00:05;;;;;;;9.60;5.72;;;;;;;2.85;78.41;101026.95;1783847;79;21425;-62
2022/02/26 06:02:34;;;;;;;23.85;5.75;;;;;;;2.88;78.38;101024.47;1769311;79;21491;-62
2022/02/26 06:05:04;;;;;;;9.53;5.35;;;;;;;2.92;78.25;101028.62;1780017;79;21105;-61
2022/02/26 06:07:34;;;;;;;13.03;5.87;;;;;;;2.91;78.18;101033.19;1781425;79;21058;-64
2022/02/26 06:10:03;;;;;;;10.00;5.30;;;;;;;2.92;78.16;101030.84;1777200;79;21101;-62
2022/02/26 06:12:32;;;;;;;12.88;5.83;;;;;;;2.93;78.11;101043.38;1777572;79;21132;-63
2022/02/26 06:15:04;;;;;;;12.13;6.12;;;;;;;2.93;78.01;101043.87;1758801;80;21051;-63
2022/02/26 06:17:36;;;;;;;12.13;5.47;;;;;;;2.92;77.94;101046.22;1778882;79;21033;-61
2022/02/26 06:20:06;;;;;;;12.82;6.05;;;;;;;2.92;77.89;101048.94;1801690;78;21058;-63
2022/02/26 06:22:35;;;;;;;12.58;6.17;;;;;;;2.94;77.93;101059.12;1785254;78;21034;-61
2022/02/26 06:25:06;;;;;;;13.22;5.95;;;;;;;2.98;77.93;101069.56;1730351;82;21089;-60
2022/02/26 06:27:39;;;;;;;11.28;5.33;;;;;;;3.01;77.84;101072.50;1737882;82;21086;-61
2022/02/26 06:30:09;;;;;;;11.53;6.35;;;;;;;3.05;77.70;101068.53;1733573;82;21582;-61
2022/02/26 06:32:38;;;;;;;32.58;8.18;;;;;;;3.06;77.58;101075.17;1704913;83;21183;-61
2022/02/26 06:35:10;;;;;;;11.18;6.00;;;;;;;3.08;77.40;101075.89;1725059;82;21016;-62
2022/02/26 06:37:41;;;;;;;11.93;5.37;;;;;;;3.09;77.25;101073.55;1731271;82;21046;-61
2022/02/26 06:40:11;;;;;;;10.38;5.47;;;;;;;3.08;77.07;101075.89;1706853;83;21662;-61
2022/02/26 06:42:39;;;;;;;14.00;6.10;;;;;;;3.09;76.98;101076.75;1724691;79;21590;-62
2022/02/26 06:45:09;;;;;;;11.43;5.67;;;;;;;3.10;76.84;101082.53;1789589;78;21603;-62
2022/02/26 06:47:37;;;;;;;11.85;5.85;;;;;;;3.09;76.71;101080.81;1789692;78;21149;-62
2022/02/26 06:50:07;;;;;;;9.63;5.50;;;;;;;3.07;76.54;101086.86;1790436;78;21004;-61
2022/02/26 06:52:35;;;;;;;13.28;5.60;;;;;;;3.06;76.42;101092.77;1784990;78;21486;-61
2022/02/26 06:55:05;;;;;;;12.00;5.55;;;;;;;3.06;76.30;101092.77;1788262;78;21177;-62
2022/02/26 06:57:35;;;;;;;12.80;5.75;;;;;;;3.09;76.22;101098.41;1785119;78;21506;-64
2022/02/26 07:00:10;;;;;;;19.82;6.45;;;;;;;3.13;76.18;101103.92;1783511;78;21042;-61
2022/02/26 07:02:35;;;;;;;11.48;5.70;;;;;;;3.15;76.08;101105.50;1794778;78;21046;-62
2022/02/26 07:05:06;;;;;;;37.73;6.97;;;;;;;3.18;75.93;101111.16;1788963;78;21582;-62
2022/02/26 07:07:37;;;;;;;37.40;6.75;;;;;;;3.21;75.83;101110.89;1786016;78;21098;-63
2022/02/26 07:10:07;;;;;;;15.65;6.03;;;;;;;3.23;75.55;101112.97;1793491;78;21046;-62
2022/02/26 07:12:39;;;;;;;11.83;4.62;;;;;;;3.27;75.37;101119.86;1784099;78;21074;-62
2022/02/26 07:15:08;;;;;;;12.85;5.03;;;;;;;3.32;75.04;101120.33;1794626;78;21664;-61
2022/02/26 07:17:39;;;;;;;8.63;4.28;;;;;;;3.33;74.71;101124.75;1798390;78;21012;-62
2022/02/26 07:20:09;;;;;;;11.18;4.87;;;;;;;3.35;74.32;101126.83;1787401;78;21094;-60
2022/02/26 07:22:39;;;;;;;8.93;4.05;;;;;;;3.35;73.71;101126.83;1783859;78;21101;-62
2022/02/26 07:25:09;;;;;;;10.20;4.83;;;;;;;3.37;73.40;101128.91;1797931;78;21192;-61
2022/02/26 07:27:37;;;;;;;8.75;4.03;;;;;;;3.40;73.15;101128.64;1796269;78;21113;-64
2022/02/26 07:30:08;;;;;;;7.47;3.80;;;;;;;3.45;72.68;101133.66;1792803;79;21487;-61
2022/02/26 07:32:38;;;;;;;8.90;4.08;;;;;;;3.48;71.84;101136.95;1796044;78;21075;-61
2022/02/26 07:35:09;;;;;;;8.55;3.92;;;;;;;3.52;71.37;101136.69;1789926;78;21086;-61
2022/02/26 07:37:37;;;;;;;9.68;3.87;;;;;;;3.55;71.06;101143.19;1784285;78;21113;-62
2022/02/26 07:40:09;;;;;;;9.58;3.65;;;;;;;3.59;70.61;101145.99;1788553;78;21110;-62
2022/02/26 07:42:38;;;;;;;10.50;3.58;;;;;;;3.62;69.95;101150.65;1786758;79;21062;-62
2022/02/26 07:45:07;;;;;;;7.30;3.20;;;;;;;3.62;69.47;101149.79;1784342;78;21077;-62
2022/02/26 07:47:36;;;;;;;9.38;3.30;;;;;;;3.64;68.94;101143.73;1790570;78;21585;-62
2022/02/26 07:50:06;;;;;;;6.95;3.47;;;;;;;3.62;68.36;101153.85;1788431;79;21046;-61
2022/02/26 07:52:34;;;;;;;8.10;3.35;;;;;;;3.60;68.04;101151.28;1785206;78;21093;-62
2022/02/26 07:55:05;;;;;;;7.87;3.50;;;;;;;3.61;68.05;101159.77;1789165;78;21082;-61
2022/02/26 07:57:33;;;;;;;11.57;3.58;;;;;;;3.65;67.67;101161.72;1782400;78;21189;-62
2022/02/26 08:00:06;;;;;;;7.78;3.15;;;;;;;3.66;67.45;101166.14;1806688;79;21003;-63
2022/02/26 08:02:38;;;;;;;6.17;2.70;;;;;;;3.70;67.35;101167.59;1782857;79;21030;-62
2022/02/26 08:05:08;;;;;;;10.35;3.40;;;;;;;3.71;67.20;101181.00;1801524;78;21000;-62
2022/02/26 08:07:37;;;;;;;9.28;3.35;;;;;;;3.78;67.20;101172.70;1790913;78;21496;-61
2022/02/26 08:10:06;;;;;;;5.83;3.15;;;;;;;4.13;67.33;101175.02;1788866;78;21046;-62
2022/02/26 08:12:36;;;;;;;5.97;3.37;;;;;;;4.60;66.37;101182.59;1772372;79;21077;-62
2022/02/26 08:15:05;;;;;;;13.48;3.62;;;;;;;5.11;65.82;101174.20;1780664;80;21510;-62
2022/02/26 08:17:35;;;;;;;7.00;3.12;;;;;;;5.62;63.86;101182.03;1775808;79;21074;-63
2022/02/26 08:20:05;;;;;;;6.12;2.80;;;;;;;6.07;62.65;101185.96;1775581;79;21521;-63
2022/02/26 08:22:35;;;;;;;9.08;2.72;;;;;;;6.61;61.00;101170.16;1781656;79;21482;-62
2022/02/26 08:25:07;;;;;;;6.60;2.40;;;;;;;6.97;57.90;101171.90;1766375;79;21094;-61
2022/02/26 08:27:36;;;;;;;4.87;2.62;;;;;;;7.22;56.84;101177.09;1782328;79;21010;-63
2022/02/26 08:30:11;;;;;;;4.92;2.50;;;;;;;7.59;55.98;101171.94;1754368;80;21122;-61
2022/02/26 08:32:41;;;;;;;5.70;2.60;;;;;;;8.06;54.07;101168.84;1780039;79;21181;-61
2022/02/26 08:35:10;;;;;;;4.65;2.52;;;;;;;8.26;52.30;101179.86;1778234;80;21056;-62
2022/02/26 08:37:39;;;;;;;13.45;2.75;;;;;;;8.41;51.78;101172.79;1779983;80;21681;-61
2022/02/26 08:40:11;;;;;;;18.52;3.45;;;;;;;8.48;50.93;101178.48;1800796;79;21458;-61
2022/02/26 08:42:40;;;;;;;5.50;2.40;;;;;;;8.50;50.87;101180.02;1782991;78;21521;-62
2022/02/26 08:45:10;;;;;;;6.30;2.42;;;;;;;8.48;50.31;101182.58;1789665;78;21157;-63
2022/02/26 08:47:38;;;;;;;5.92;2.33;;;;;;;8.37;50.21;101185.06;1780958;79;21058;-62
2022/02/26 08:50:11;;;;;;;20.08;3.45;;;;;;;8.39;50.67;101184.89;1781987;79;20999;-62
2022/02/26 08:52:40;;;;;;;12.10;2.90;;;;;;;8.42;50.28;101188.66;1746961;80;21063;-61
2022/02/26 08:55:11;;;;;;;4.22;2.20;;;;;;;8.41;49.48;101194.64;1777266;80;21522;-61
2022/02/26 08:57:39;;;;;;;3.90;2.05;;;;;;;8.30;49.62;101183.12;1779802;79;21064;-62
2022/02/26 09:00:09;;;;;;;4.95;2.50;;;;;;;8.14;49.60;101191.58;1777785;79;21499;-63
2022/02/26 09:02:38;;;;;;;5.95;2.15;;;;;;;7.93;49.73;101186.52;1781528;79;21044;-62
2022/02/26 09:05:08;;;;;;;5.87;2.15;;;;;;;7.82;50.10;101185.93;1782738;79;21045;-62
2022/02/26 09:07:37;;;;;;;6.87;2.25;;;;;;;7.76;50.52;101185.17;1798490;79;21201;-62
2022/02/26 09:10:07;;;;;;;64.72;5.78;;;;;;;7.73;50.02;101190.95;1805348;78;20972;-63
2022/02/26 09:12:37;;;;;;;6.28;2.12;;;;;;;7.63;50.17;101188.33;1799358;79;21615;-61
2022/02/26 09:15:07;;;;;;;5.08;1.80;;;;;;;7.50;50.27;101190.11;1784708;78;21046;-61
2022/02/26 09:17:35;;;;;;;13.75;2.10;;;;;;;7.37;50.26;101194.26;1783462;78;21161;-61
2022/02/26 09:20:05;;;;;;;8.85;2.00;;;;;;;7.26;50.50;101197.58;1784527;78;21192;-61
2022/02/26 09:22:36;;;;;;;4.42;1.45;;;;;;;7.21;50.55;101197.19;1773607;79;21150;-62
2022/02/26 09:25:06;;;;;;;3.40;1.47;;;;;;;7.18;50.28;101193.92;1795082;79;21090;-64
2022/02/26 09:27:35;;;;;;;4.58;1.30;;;;;;;7.12;49.96;101191.28;1787704;79;21514;-62
2022/02/26 09:30:05;;;;;;;5.15;1.22;;;;;;;7.13;49.73;101189.41;1802434;79;21047;-61
2022/02/26 09:32:36;;;;;;;2.30;1.20;;;;;;;7.10;49.87;101197.39;1800114;78;21085;-61
2022/02/26 09:35:06;;;;;;;3.17;1.00;;;;;;;7.11;49.51;101192.30;1795932;78;21582;-62
2022/02/26 09:37:35;;;;;;;4.30;1.30;;;;;;;7.08;49.07;101198.56;1799065;78;21470;-64
2022/02/26 09:40:05;;;;;;;3.60;1.05;;;;;;;7.02;48.52;101194.59;1799257;79;21146;-61
2022/02/26 09:42:36;;;;;;;5.67;0.95;;;;;;;6.97;48.66;101201.02;1778414;79;21185;-62
2022/02/26 09:45:06;;;;;;;5.90;1.02;;;;;;;6.94;48.32;101196.73;1758782;80;21503;-61
2022/02/26 09:47:35;;;;;;;7.25;1.10;;;;;;;6.92;48.16;101197.39;1799422;78;21031;-64
2022/02/26 09:50:05;;;;;;;2.22;0.88;;;;;;;6.88;48.31;101198.71;1768540;79;21039;-62
2022/02/26 09:52:38;;;;;;;3.08;0.70;;;;;;;6.86;48.14;101204.82;1803261;79;21057;-62
2022/02/26 09:55:08;;;;;;;12.55;1.42;;;;;;;6.87;47.56;101213.34;1783459;78;21057;-62
2022/02/26 09:57:37;;;;;;;2.98;0.90;;;;;;;6.87;47.75;101213.34;1787671;79;21467;-61
2022/02/26 10:00:09;;;;;;;2.20;0.80;;;;;;;6.84;47.12;101209.56;1789628;78;21062;-62
2022/02/26 10:02:39;;;;;;;3.50;0.93;;;;;;;6.82;47.77;101214.31;1786061;78;21153;-62
2022/02/26 10:05:10;;;;;;;6.72;1.30;;;;;;;6.82;47.14;101214.81;1806652;79;21098;-61
2022/02/26 10:07:41;;;;;;;8.05;1.42;;;;;;;6.83;47.46;101232.87;1794666;79;21019;-62
2022/02/26 10:10:28;;;;;;;4.25;0.90;;;;;;;6.86;47.51;101232.06;1784352;78;21470;-62
2022/02/26 10:13:00;;;;;;;23.05;2.42;;;;;;;6.87;47.64;101230.19;1804155;78;21015;-61
2022/02/26 10:15:40;;;;;;;4.62;1.10;;;;;;;6.88;47.58;101223.73;1728816;82;21139;-62
2022/02/26 10:18:11;;;;;;;5.05;1.20;;;;;;;6.88;47.86;101232.77;1712200;83;21042;-61
2022/02/26 10:20:53;;;;;;;7.12;1.37;;;;;;;6.92;47.44;101236.04;1714103;82;21585;-62
2022/02/26 10:23:22;;;;;;;4.15;1.07;;;;;;;6.90;46.88;101234.83;1721599;83;21015;-61
2022/02/26 10:25:51;;;;;;;2.50;0.88;;;;;;;6.88;47.22;101235.99;1719305;82;21568;-62
2022/02/26 10:28:19;;;;;;;2.55;0.85;;;;;;;6.90;46.40;101228.52;1734784;82;21082;-62
2022/02/26 10:30:49;;;;;;;2.27;0.78;;;;;;;6.92;45.78;101234.67;1666307;82;21076;-61
2022/02/26 10:33:23;;;;;;;3.12;0.78;;;;;;;6.92;45.08;101236.04;1735766;79;21119;-62
2022/02/26 10:35:59;;;;;;;5.58;1.00;;;;;;;6.92;44.52;101239.62;1776030;79;21198;-62
2022/02/26 10:38:31;;;;;;;3.52;0.80;;;;;;;6.94;44.64;101234.88;1776615;80;21018;-62
2022/02/26 10:41:10;;;;;;;20.35;1.37;;;;;;;6.99;44.84;101241.22;1672139;84;21103;-62
2022/02/26 10:43:46;;;;;;;8.08;1.60;;;;;;;7.03;43.97;101260.34;1712049;83;21085;-63
2022/02/26 10:46:26;;;;;;;2.37;0.80;;;;;;;7.05;43.47;101241.11;1711529;83;21147;-61
2022/02/26 10:49:07;;;;;;;3.37;0.80;;;;;;;7.06;43.47;101248.27;1639944;87;21072;-62
2022/02/26 10:51:39;;;;;;;4.22;0.90;;;;;;;7.06;43.26;101242.83;1636423;87;21489;-62
2022/02/26 10:54:13;;;;;;;3.05;1.15;;;;;;;7.07;43.58;101241.30;1637719;87;21103;-62
2022/02/26 10:56:43;;;;;;;3.35;0.80;;;;;;;7.07;42.95;101239.95;1639378;87;21139;-62
2022/02/26 10:59:15;;;;;;;1.42;0.72;;;;;;;7.08;42.98;101240.80;1663648;84;21086;-61
2022/02/26 11:01:43;;;;;;;1.50;0.60;;;;;;;7.10;43.14;101240.14;1686432;84;21478;-61
2022/02/26 11:04:16;;;;;;;2.90;0.95;;;;;;;7.11;43.36;101239.98;1665925;84;21211;-62
2022/02/26 11:06:44;;;;;;;2.08;0.70;;;;;;;7.13;43.18;101240.69;1734159;80;21156;-61
2022/02/26 11:09:13;;;;;;;3.17;0.82;;;;;;;7.19;43.24;101233.28;1787429;78;21031;-62
2022/02/26 11:11:44;;;;;;;2.45;0.95;;;;;;;7.24;43.36;101232.31;1794202;78;21074;-62
2022/02/26 11:14:13;;;;;;;2.37;0.93;;;;;;;7.27;43.54;101229.27;1774656;79;21079;-62
2022/02/26 11:16:44;;;;;;;41.68;2.33;;;;;;;7.29;43.39;101232.70;1751204;80;21052;-62
2022/02/26 11:19:13;;;;;;;1.55;0.70;;;;;;;7.30;43.50;101242.59;1725633;81;21201;-61
2022/02/26 11:21:41;;;;;;;3.17;0.68;;;;;;;7.31;42.84;101236.13;1764254;79;21085;-61
2022/02/26 11:24:10;;;;;;;3.75;0.78;;;;;;;7.29;42.45;101254.51;1782864;80;21584;-62
2022/02/26 11:26:38;;;;;;;1.80;0.90;;;;;;;7.26;42.79;101241.70;1786624;80;21034;-63
2022/02/26 11:29:07;;;;;;;2.25;0.80;;;;;;;7.26;42.97;101243.91;1794231;78;21476;-63
2022/02/26 11:31:48;;;;;;;11.85;1.30;;;;;;;7.28;43.20;101257.39;1780129;79;21118;-62
2022/02/26 11:34:25;;;;;;;3.58;0.72;;;;;;;7.30;43.26;101261.67;1777297;79;21502;-61
2022/02/26 11:37:05;;;;;;;2.00;0.70;;;;;;;7.30;42.84;101248.55;1780965;79;21043;-63
2022/02/26 11:39:38;;;;;;;2.17;0.60;;;;;;;7.28;42.57;101256.88;1800096;78;20984;-61
2022/02/26 11:42:26;;;;;;;2.83;0.72;;;;;;;7.27;42.59;101266.08;1776634;79;21062;-61
2022/02/26 11:45:06;;;;;;;4.67;0.90;;;;;;;7.27;42.55;101266.58;1781929;79;21030;-62